createdAt,value
2022-12-09T00:00:39.603Z,11.94
2022-12-09T00:02:11.573Z,11.94
2022-12-09T00:03:43.424Z,11.97
2022-12-09T00:05:15.549Z,11.97
2022-12-09T00:06:47.611Z,11.91
2022-12-09T00:08:19.232Z,11.91
2022-12-09T00:09:51.137Z,11.91
2022-12-09T00:11:22.912Z,11.92
2022-12-09T00:12:55.748Z,11.91
2022-12-09T00:14:27.230Z,11.92
2022-12-09T00:15:58.995Z,11.95
2022-12-09T00:17:30.910Z,12.00
2022-12-09T00:19:02.561Z,12.08
2022-12-09T00:20:34.296Z,12.11
2022-12-09T00:22:05.800Z,12.09
2022-12-09T00:23:37.421Z,12.06
2022-12-09T00:25:09.218Z,12.02
2022-12-09T00:26:41.521Z,12.06
2022-12-09T00:28:13.427Z,12.08
2022-12-09T00:29:45.516Z,12.10
2022-12-09T00:31:18.688Z,12.15
2022-12-09T00:32:50.577Z,12.20
2022-12-09T00:34:22.414Z,12.18
2022-12-09T00:35:54.113Z,12.18
2022-12-09T00:37:25.658Z,12.23
2022-12-09T00:38:57.880Z,12.27
2022-12-09T00:40:29.555Z,12.29
2022-12-09T00:42:02.084Z,12.28
2022-12-09T00:43:34.831Z,12.22
2022-12-09T00:45:08.784Z,12.22
2022-12-09T00:46:41.202Z,12.20
2022-12-09T00:48:14.858Z,12.18
2022-12-09T00:49:48.685Z,12.21
2022-12-09T00:51:21.963Z,12.21
2022-12-09T00:52:54.582Z,12.16
2022-12-09T00:54:27.635Z,12.16
2022-12-09T00:56:00.371Z,12.16
2022-12-09T00:57:33.190Z,12.16
2022-12-09T00:59:06.098Z,12.20
2022-12-09T01:00:39.151Z,12.22
2022-12-09T01:02:11.601Z,12.24
2022-12-09T01:03:43.544Z,12.27
2022-12-09T01:05:15.497Z,12.24
2022-12-09T01:06:47.108Z,12.20
2022-12-09T01:08:19.792Z,12.12
2022-12-09T01:09:51.449Z,12.13
2022-12-09T01:11:24.447Z,12.15
2022-12-09T01:12:56.239Z,12.12
2022-12-09T01:14:27.898Z,12.15
2022-12-09T01:15:59.573Z,12.16
2022-12-09T01:17:31.236Z,12.14
2022-12-09T01:19:07.900Z,12.13
2022-12-09T01:20:39.837Z,12.14
2022-12-09T01:22:11.658Z,12.10
2022-12-09T01:23:43.217Z,12.04
2022-12-09T01:25:15.193Z,12.02
2022-12-09T01:26:47.259Z,12.00
2022-12-09T01:28:19.157Z,12.04
2022-12-09T01:29:51.088Z,12.06
2022-12-09T01:31:23.458Z,12.04
2022-12-09T01:32:55.511Z,12.06
2022-12-09T01:34:27.445Z,12.03
2022-12-09T01:35:59.270Z,12.05
2022-12-09T01:37:34.330Z,12.09
2022-12-09T01:39:06.531Z,12.07
2022-12-09T01:40:38.664Z,12.06
2022-12-09T01:42:10.938Z,12.06
2022-12-09T01:43:42.790Z,12.07
2022-12-09T01:45:20.955Z,12.02
2022-12-09T01:46:56.808Z,12.00
2022-12-09T01:48:30.414Z,11.96
2022-12-09T01:50:02.246Z,11.91
2022-12-09T01:51:34.032Z,11.85
2022-12-09T01:53:06.172Z,11.79
2022-12-09T01:54:37.863Z,11.77
2022-12-09T01:56:11.448Z,11.78
2022-12-09T01:57:43.079Z,11.83
2022-12-09T01:59:15.103Z,11.83
2022-12-09T02:00:47.038Z,11.84
2022-12-09T02:02:18.865Z,11.86
2022-12-09T02:03:50.667Z,11.85
2022-12-09T02:05:24.673Z,11.84
2022-12-09T02:06:57.494Z,11.86
2022-12-09T02:08:29.223Z,11.86
2022-12-09T02:10:01.346Z,11.82
2022-12-09T02:11:42.071Z,11.83
2022-12-09T02:13:18.612Z,11.81
2022-12-09T02:14:54.913Z,11.77
2022-12-09T02:16:27.130Z,11.78
2022-12-09T02:18:02.557Z,11.79
2022-12-09T02:19:34.458Z,11.78
2022-12-09T02:21:13.256Z,11.77
2022-12-09T02:22:45.314Z,11.83
2022-12-09T02:24:29.291Z,11.86
2022-12-09T02:26:14.603Z,11.85
2022-12-09T02:28:02.669Z,11.87
2022-12-09T02:29:52.913Z,11.84
2022-12-09T02:31:28.157Z,11.78
2022-12-09T02:33:00.186Z,11.71
2022-12-09T02:34:34.727Z,11.64
2022-12-09T02:36:08.170Z,11.61
2022-12-09T02:37:58.496Z,11.60
2022-12-09T02:39:32.391Z,11.62
2022-12-09T02:41:05.915Z,11.63
2022-12-09T02:42:37.867Z,11.65
2022-12-09T02:44:14.564Z,11.64
2022-12-09T02:45:46.456Z,11.64
2022-12-09T02:47:19.718Z,11.68
2022-12-09T02:48:52.301Z,11.67
2022-12-09T02:50:24.863Z,11.65
2022-12-09T02:51:56.529Z,11.69
2022-12-09T02:53:28.371Z,11.66
2022-12-09T02:55:00.914Z,11.62
2022-12-09T02:56:32.597Z,11.58
2022-12-09T02:58:04.195Z,11.55
2022-12-09T02:59:35.789Z,11.54
2022-12-09T03:01:19.658Z,11.51
2022-12-09T03:02:52.721Z,11.51
2022-12-09T03:04:24.847Z,11.49
2022-12-09T03:05:58.420Z,11.49
2022-12-09T03:07:39.305Z,11.47
2022-12-09T03:09:12.184Z,11.45
2022-12-09T03:10:46.188Z,11.41
2022-12-09T03:12:18.039Z,11.43
2022-12-09T03:13:52.450Z,11.43
2022-12-09T03:15:25.285Z,11.41
2022-12-09T03:16:58.807Z,11.35
2022-12-09T03:18:30.702Z,11.34
2022-12-09T03:20:05.609Z,11.28
2022-12-09T03:21:38.884Z,11.26
2022-12-09T03:23:10.970Z,11.24
2022-12-09T03:24:44.962Z,11.22
2022-12-09T03:26:16.841Z,11.21
2022-12-09T03:27:56.009Z,11.16
2022-12-09T03:29:27.607Z,11.12
2022-12-09T03:31:00.379Z,11.11
2022-12-09T03:32:32.034Z,11.10
2022-12-09T03:34:05.259Z,11.10
2022-12-09T03:35:37.753Z,11.10
2022-12-09T03:37:09.637Z,11.09
2022-12-09T03:38:41.494Z,11.08
2022-12-09T03:40:14.727Z,11.06
2022-12-09T03:41:48.894Z,11.07
2022-12-09T03:43:24.380Z,11.09
2022-12-09T03:44:57.372Z,11.07
2022-12-09T03:46:29.375Z,11.02
2022-12-09T03:48:02.070Z,11.00
2022-12-09T03:49:33.931Z,10.95
2022-12-09T03:51:06.280Z,10.96
2022-12-09T03:52:40.264Z,10.94
2022-12-09T03:54:20.863Z,10.94
2022-12-09T03:55:54.973Z,10.95
2022-12-09T03:57:26.684Z,10.92
2022-12-09T03:58:58.550Z,10.85
2022-12-09T04:00:30.557Z,10.79
2022-12-09T04:02:04.096Z,10.75
2022-12-09T04:03:36.421Z,10.76
2022-12-09T04:05:08.631Z,10.75
2022-12-09T04:06:40.571Z,10.74
2022-12-09T04:08:12.381Z,10.73
2022-12-09T04:09:44.615Z,10.64
2022-12-09T04:11:16.523Z,10.54
2022-12-09T04:12:48.266Z,10.45
2022-12-09T04:14:19.977Z,10.38
2022-12-09T04:15:51.592Z,10.35
2022-12-09T04:17:23.543Z,10.32
2022-12-09T04:18:55.351Z,10.29
2022-12-09T04:20:26.997Z,10.28
2022-12-09T04:21:58.933Z,10.26
2022-12-09T04:23:30.983Z,10.21
2022-12-09T04:25:02.530Z,10.16
2022-12-09T04:26:34.276Z,10.13
2022-12-09T04:28:05.983Z,10.10
2022-12-09T04:29:38.387Z,10.11
2022-12-09T04:31:11.160Z,10.09
2022-12-09T04:32:44.126Z,10.08
2022-12-09T04:34:16.247Z,10.09
2022-12-09T04:35:48.259Z,10.10
2022-12-09T04:37:20.220Z,10.11
2022-12-09T04:38:51.965Z,10.11
2022-12-09T04:40:24.610Z,10.13
2022-12-09T04:41:56.896Z,10.12
2022-12-09T04:43:28.497Z,10.11
2022-12-09T04:45:00.411Z,10.09
2022-12-09T04:46:31.942Z,10.09
2022-12-09T04:48:03.977Z,10.11
2022-12-09T04:49:35.823Z,10.11
2022-12-09T04:51:09.817Z,10.12
2022-12-09T04:52:41.658Z,10.11
2022-12-09T04:54:13.862Z,10.11
2022-12-09T04:55:46.178Z,10.10
2022-12-09T04:57:18.515Z,10.07
2022-12-09T04:58:50.773Z,10.06
2022-12-09T05:00:22.694Z,10.08
2022-12-09T05:01:54.813Z,10.08
2022-12-09T05:03:26.788Z,10.09
2022-12-09T05:05:01.770Z,10.08
2022-12-09T05:06:33.935Z,10.08
2022-12-09T05:08:06.567Z,10.09
2022-12-09T05:09:38.451Z,10.08
2022-12-09T05:11:10.235Z,10.06
2022-12-09T05:12:42.663Z,10.08
2022-12-09T05:14:14.793Z,10.07
2022-12-09T05:15:46.966Z,10.05
2022-12-09T05:17:18.952Z,10.02
2022-12-09T05:18:50.902Z,10.00
2022-12-09T05:20:23.769Z,9.99
2022-12-09T05:21:55.783Z,9.99
2022-12-09T05:23:27.681Z,9.97
2022-12-09T05:24:59.916Z,9.97
2022-12-09T05:26:31.740Z,9.96
2022-12-09T05:28:03.804Z,9.95
2022-12-09T05:29:35.744Z,9.97
2022-12-09T05:31:08.556Z,10.00
2022-12-09T05:32:40.682Z,10.02
2022-12-09T05:34:12.557Z,10.03
2022-12-09T05:35:52.271Z,10.01
2022-12-09T05:37:25.204Z,10.02
2022-12-09T05:38:57.175Z,10.04
2022-12-09T05:40:29.186Z,10.02
2022-12-09T05:42:01.245Z,10.02
2022-12-09T05:43:33.369Z,10.02
2022-12-09T05:45:05.358Z,10.04
2022-12-09T05:46:37.521Z,10.05
2022-12-09T05:48:09.339Z,10.04
2022-12-09T05:49:41.552Z,10.06
2022-12-09T05:51:23.798Z,10.08
2022-12-09T05:52:55.635Z,10.05
2022-12-09T05:54:27.489Z,10.05
2022-12-09T05:56:00.038Z,10.05
2022-12-09T05:57:33.221Z,10.05
2022-12-09T05:59:05.021Z,10.04
2022-12-09T06:00:36.996Z,10.04
2022-12-09T06:02:10.417Z,10.02
2022-12-09T06:03:43.163Z,10.01
2022-12-09T06:05:15.575Z,10.00
2022-12-09T06:06:47.884Z,9.99
2022-12-09T06:08:19.752Z,10.00
2022-12-09T06:09:51.823Z,10.02
2022-12-09T06:11:24.045Z,10.05
2022-12-09T06:12:56.078Z,10.04
2022-12-09T06:14:28.045Z,10.04
2022-12-09T06:16:04.464Z,10.04
2022-12-09T06:17:36.599Z,10.03
2022-12-09T06:19:10.081Z,10.04
2022-12-09T06:20:42.445Z,10.05
2022-12-09T06:22:14.547Z,10.08
2022-12-09T06:23:46.438Z,10.14
2022-12-09T06:25:18.023Z,10.16
2022-12-09T06:26:50.021Z,10.18
2022-12-09T06:28:22.110Z,10.17
2022-12-09T06:29:54.086Z,10.16
2022-12-09T06:31:26.189Z,10.15
2022-12-09T06:32:58.636Z,10.14
2022-12-09T06:34:31.235Z,10.14
2022-12-09T06:36:03.455Z,10.14
2022-12-09T06:37:35.558Z,10.12
2022-12-09T06:39:10.461Z,10.10
2022-12-09T06:40:43.254Z,10.10
2022-12-09T06:42:15.048Z,10.12
2022-12-09T06:43:47.028Z,10.15
2022-12-09T06:45:19.993Z,10.19
2022-12-09T06:46:52.112Z,10.19
2022-12-09T06:48:24.307Z,10.22
2022-12-09T06:50:04.380Z,10.24
2022-12-09T06:51:39.256Z,10.24
2022-12-09T06:53:11.362Z,10.18
2022-12-09T06:54:43.257Z,10.21
2022-12-09T06:56:15.119Z,10.22
2022-12-09T06:57:47.425Z,10.16
2022-12-09T06:59:19.444Z,10.14
2022-12-09T07:00:51.823Z,10.17
2022-12-09T07:02:24.173Z,10.22
2022-12-09T07:03:57.150Z,10.26
2022-12-09T07:05:29.674Z,10.27
2022-12-09T07:07:01.560Z,10.26
2022-12-09T07:08:34.286Z,10.27
2022-12-09T07:10:06.765Z,10.27
2022-12-09T07:11:39.182Z,10.24
2022-12-09T07:13:11.525Z,10.26
2022-12-09T07:14:43.237Z,10.34
2022-12-09T07:16:15.652Z,10.39
2022-12-09T07:17:47.572Z,10.41
2022-12-09T07:19:21.118Z,10.44
2022-12-09T07:20:53.025Z,10.52
2022-12-09T07:22:24.934Z,10.58
2022-12-09T07:23:59.461Z,10.58
2022-12-09T07:25:31.938Z,10.55
2022-12-09T07:27:08.675Z,10.57
2022-12-09T07:28:43.527Z,10.61
2022-12-09T07:30:15.620Z,10.59
2022-12-09T07:31:48.630Z,10.60
2022-12-09T07:33:20.502Z,10.63
2022-12-09T07:34:52.678Z,10.66
2022-12-09T07:36:25.304Z,10.66
2022-12-09T07:37:57.919Z,10.65
2022-12-09T07:39:29.829Z,10.66
2022-12-09T07:41:05.715Z,10.66
2022-12-09T07:42:37.889Z,10.67
2022-12-09T07:44:10.534Z,10.69
2022-12-09T07:45:42.555Z,10.70
2022-12-09T07:47:14.314Z,10.78
2022-12-09T07:48:46.596Z,10.81
2022-12-09T07:50:19.114Z,10.83
2022-12-09T07:51:51.447Z,10.87
2022-12-09T07:53:23.629Z,10.89
2022-12-09T07:54:56.408Z,10.88
2022-12-09T07:56:29.371Z,10.92
2022-12-09T07:58:01.610Z,10.99
2022-12-09T07:59:33.697Z,11.05
2022-12-09T08:01:07.029Z,11.08
2022-12-09T08:02:39.095Z,11.13
2022-12-09T08:04:11.332Z,11.16
2022-12-09T08:05:49.848Z,11.19
2022-12-09T08:07:23.079Z,11.26
2022-12-09T08:08:58.765Z,11.29
2022-12-09T08:10:31.087Z,11.27
2022-12-09T08:12:03.629Z,11.28
2022-12-09T08:13:35.856Z,11.37
2022-12-09T08:15:07.920Z,11.44
2022-12-09T08:16:40.426Z,11.46
2022-12-09T08:18:12.782Z,11.59
2022-12-09T08:19:45.015Z,11.76
2022-12-09T08:21:18.286Z,11.86
2022-12-09T08:22:50.130Z,11.91
2022-12-09T08:24:21.969Z,12.00
2022-12-09T08:25:54.407Z,12.06
2022-12-09T08:27:26.235Z,12.06
2022-12-09T08:28:58.086Z,12.05
2022-12-09T08:30:30.419Z,12.03
2022-12-09T08:32:02.920Z,12.07
2022-12-09T08:33:35.431Z,12.15
2022-12-09T08:35:08.108Z,12.17
2022-12-09T08:36:39.976Z,12.23
2022-12-09T08:38:12.513Z,12.22
2022-12-09T08:39:44.444Z,12.25
2022-12-09T08:41:16.860Z,12.26
2022-12-09T08:42:48.537Z,12.25
2022-12-09T08:44:20.968Z,12.27
2022-12-09T08:45:53.189Z,12.31
2022-12-09T08:47:25.353Z,12.40
2022-12-09T08:48:57.648Z,12.53
2022-12-09T08:50:29.688Z,12.64
2022-12-09T08:52:01.414Z,12.78
2022-12-09T08:53:33.562Z,12.94
2022-12-09T08:55:05.669Z,13.00
2022-12-09T08:56:37.421Z,13.05
2022-12-09T08:58:09.814Z,13.07
2022-12-09T08:59:45.250Z,13.06
2022-12-09T09:01:21.089Z,13.10
2022-12-09T09:02:53.238Z,13.12
2022-12-09T09:04:25.390Z,13.17
2022-12-09T09:06:08.900Z,13.22
2022-12-09T09:07:42.052Z,13.26
2022-12-09T09:09:14.706Z,13.24
2022-12-09T09:10:46.796Z,13.24
2022-12-09T09:12:18.819Z,13.20
2022-12-09T09:13:54.005Z,13.13
2022-12-09T09:15:26.379Z,13.13
2022-12-09T09:16:58.450Z,13.12
2022-12-09T09:18:30.244Z,13.10
2022-12-09T09:20:03.072Z,13.08
2022-12-09T09:21:35.733Z,13.07
2022-12-09T09:23:09.437Z,12.98
2022-12-09T09:24:41.701Z,13.01
2022-12-09T09:26:14.433Z,13.03
2022-12-09T09:27:46.502Z,13.04
2022-12-09T09:29:19.043Z,12.98
2022-12-09T09:30:51.287Z,12.94
2022-12-09T09:32:23.125Z,12.95
2022-12-09T09:33:55.140Z,12.96
2022-12-09T09:35:27.239Z,12.94
2022-12-09T09:36:59.305Z,12.98
2022-12-09T09:38:33.275Z,13.08
2022-12-09T09:40:06.456Z,13.17
2022-12-09T09:41:44.359Z,13.20
2022-12-09T09:43:16.847Z,13.22
2022-12-09T09:44:49.389Z,13.20
2022-12-09T09:46:24.992Z,13.23
2022-12-09T09:48:02.989Z,13.26
2022-12-09T09:49:46.437Z,13.28
2022-12-09T09:51:19.197Z,13.26
2022-12-09T09:52:51.298Z,13.22
2022-12-09T09:54:23.489Z,13.19
2022-12-09T09:56:02.163Z,13.24
2022-12-09T09:57:40.456Z,13.30
2022-12-09T09:59:18.038Z,13.37
2022-12-09T10:00:50.853Z,13.32
2022-12-09T10:02:55.894Z,13.28
2022-12-09T10:04:43.445Z,13.30
2022-12-09T10:06:23.951Z,13.32
2022-12-09T10:08:04.146Z,13.35
2022-12-09T10:09:57.731Z,13.33
2022-12-09T10:11:32.135Z,13.39
2022-12-09T10:13:16.267Z,13.43
2022-12-09T10:14:50.571Z,13.48
2022-12-09T10:16:28.831Z,13.56
2022-12-09T10:18:27.009Z,13.64
2022-12-09T10:20:03.746Z,13.64
2022-12-09T10:21:37.416Z,13.67
2022-12-09T10:23:12.919Z,13.66
2022-12-09T10:24:49.400Z,13.71
2022-12-09T10:26:23.886Z,13.69
2022-12-09T10:28:01.776Z,13.65
2022-12-09T10:29:33.530Z,13.61
2022-12-09T10:31:05.642Z,13.54
2022-12-09T10:32:38.538Z,13.50
2022-12-09T10:34:11.022Z,13.48
2022-12-09T10:35:43.383Z,13.46
2022-12-09T10:37:32.232Z,13.40
2022-12-09T10:39:05.295Z,13.37
2022-12-09T10:40:40.936Z,13.35
2022-12-09T10:42:39.111Z,13.34
2022-12-09T10:44:24.068Z,13.35
2022-12-09T10:47:52.393Z,13.30
2022-12-09T10:49:25.512Z,13.30
2022-12-09T10:50:57.887Z,13.31
2022-12-09T10:52:33.663Z,13.31
2022-12-09T10:54:15.374Z,13.35
2022-12-09T10:55:52.203Z,13.36
2022-12-09T10:57:28.171Z,13.37
2022-12-09T10:59:10.588Z,13.43
2022-12-09T11:00:42.754Z,13.48
2022-12-09T11:02:21.217Z,13.45
2022-12-09T11:03:56.948Z,13.43
2022-12-09T11:05:29.846Z,13.39
2022-12-09T11:07:03.082Z,13.37
2022-12-09T11:08:35.363Z,13.38
2022-12-09T11:10:15.362Z,13.43
2022-12-09T11:11:48.064Z,13.47
2022-12-09T11:13:29.045Z,13.55
2022-12-09T11:15:04.472Z,13.61
2022-12-09T11:16:36.184Z,13.63
2022-12-09T11:18:15.860Z,13.67
2022-12-09T11:20:09.149Z,13.71
2022-12-09T11:21:42.321Z,13.76
2022-12-09T11:23:16.299Z,13.82
2022-12-09T11:24:49.052Z,13.86
2022-12-09T11:26:24.523Z,13.87
2022-12-09T11:28:06.819Z,13.88
2022-12-09T11:29:38.549Z,13.90
2022-12-09T11:31:29.458Z,13.92
2022-12-09T11:33:14.552Z,13.95
2022-12-09T11:34:47.220Z,13.93
2022-12-09T11:36:21.240Z,13.95
2022-12-09T11:37:52.868Z,13.98
2022-12-09T11:39:26.181Z,14.00
2022-12-09T11:41:05.280Z,14.07
2022-12-09T11:42:37.532Z,14.10
2022-12-09T11:44:27.806Z,14.12
2022-12-09T11:45:59.366Z,14.16
2022-12-09T11:47:50.245Z,14.21
2022-12-09T11:49:23.754Z,14.31
2022-12-09T11:50:55.331Z,14.31
2022-12-09T11:52:28.386Z,14.32
2022-12-09T11:54:10.912Z,14.39
2022-12-09T11:55:44.840Z,14.50
2022-12-09T11:57:54.941Z,14.50
2022-12-09T11:59:34.780Z,14.47
2022-12-09T12:01:13.505Z,14.49
2022-12-09T12:02:53.429Z,14.48
2022-12-09T12:04:26.920Z,14.50
2022-12-09T12:05:59.322Z,14.49
2022-12-09T12:07:33.108Z,14.51
2022-12-09T12:09:06.497Z,14.49
2022-12-09T12:10:39.942Z,14.50
2022-12-09T12:12:24.697Z,14.47
2022-12-09T12:14:12.560Z,14.42
2022-12-09T12:16:05.507Z,14.38
2022-12-09T12:17:38.300Z,14.35
2022-12-09T12:19:09.943Z,14.31
2022-12-09T12:20:44.800Z,14.26
2022-12-09T12:22:16.440Z,14.25
2022-12-09T12:24:03.633Z,14.25
2022-12-09T12:25:48.722Z,14.27
2022-12-09T12:27:33.868Z,14.26
2022-12-09T12:29:08.511Z,14.21
2022-12-09T12:30:40.578Z,14.22
2022-12-09T12:32:27.878Z,14.26
2022-12-09T12:34:27.975Z,14.31
2022-12-09T12:36:04.022Z,14.31
2022-12-09T12:37:47.869Z,14.29
2022-12-09T12:39:38.035Z,14.28
2022-12-09T12:41:22.280Z,14.25
2022-12-09T12:43:15.274Z,14.23
2022-12-09T12:45:05.177Z,14.28
2022-12-09T12:46:44.622Z,14.27
2022-12-09T12:48:21.155Z,14.25
2022-12-09T12:50:11.316Z,14.26
2022-12-09T12:51:42.994Z,14.25
2022-12-09T12:53:14.609Z,14.25
2022-12-09T12:54:46.125Z,14.28
2022-12-09T12:56:24.752Z,14.33
2022-12-09T12:58:15.019Z,14.36
2022-12-09T12:59:52.714Z,14.34
2022-12-09T13:01:30.410Z,14.36
2022-12-09T13:03:24.805Z,14.32
2022-12-09T13:05:01.331Z,14.33
2022-12-09T13:06:44.350Z,14.30
2022-12-09T13:08:18.287Z,14.25
2022-12-09T13:09:52.403Z,14.22
2022-12-09T13:11:26.433Z,14.16
2022-12-09T13:12:58.733Z,14.14
2022-12-09T13:14:32.345Z,14.11
2022-12-09T13:16:24.453Z,14.10
2022-12-09T13:17:56.619Z,14.06
2022-12-09T13:19:40.659Z,14.05
2022-12-09T13:21:12.479Z,14.04
2022-12-09T13:22:46.073Z,14.05
2022-12-09T13:24:37.665Z,13.99
2022-12-09T13:26:36.405Z,13.90
2022-12-09T13:28:19.115Z,13.85
2022-12-09T13:30:13.885Z,13.80
2022-12-09T13:32:08.926Z,13.77
2022-12-09T13:33:47.655Z,13.71
2022-12-09T13:35:27.687Z,13.67
2022-12-09T13:36:59.540Z,13.68
2022-12-09T13:38:43.171Z,13.71
2022-12-09T13:40:20.547Z,13.75
2022-12-09T13:42:10.731Z,13.74
2022-12-09T13:43:42.856Z,13.73
2022-12-09T13:45:19.706Z,13.71
2022-12-09T13:46:51.935Z,13.67
2022-12-09T13:48:23.445Z,13.63
2022-12-09T13:49:56.105Z,13.60
2022-12-09T13:51:27.961Z,13.60
2022-12-09T13:53:18.073Z,13.60
2022-12-09T13:54:50.533Z,13.61
2022-12-09T13:56:26.475Z,13.59
2022-12-09T13:58:30.671Z,13.59
2022-12-09T14:00:03.883Z,13.59
2022-12-09T14:01:35.888Z,13.58
2022-12-09T14:03:17.211Z,13.61
2022-12-09T14:05:08.061Z,13.64
2022-12-09T14:06:45.754Z,13.58
2022-12-09T14:08:19.685Z,13.55
2022-12-09T14:09:53.372Z,13.50
2022-12-09T14:11:54.001Z,13.55
2022-12-09T14:13:38.102Z,13.59
2022-12-09T14:15:25.422Z,13.61
2022-12-09T14:16:57.885Z,13.60
2022-12-09T14:18:31.109Z,13.61
2022-12-09T14:20:02.858Z,13.61
2022-12-09T14:21:34.439Z,13.57
2022-12-09T14:23:12.627Z,13.51
2022-12-09T14:24:45.580Z,13.49
2022-12-09T14:26:20.506Z,13.47
2022-12-09T14:28:10.923Z,13.44
2022-12-09T14:29:42.525Z,13.39
2022-12-09T14:31:17.805Z,13.37
2022-12-09T14:32:49.652Z,13.30
2022-12-09T14:34:29.086Z,13.29
2022-12-09T14:36:03.246Z,13.28
2022-12-09T14:37:35.766Z,13.28
2022-12-09T14:39:24.401Z,13.26
2022-12-09T14:40:56.399Z,13.28
2022-12-09T14:42:31.577Z,13.28
2022-12-09T14:44:03.161Z,13.29
2022-12-09T14:45:50.090Z,13.27
2022-12-09T14:47:21.670Z,13.27
2022-12-09T14:49:10.976Z,13.24
2022-12-09T14:50:43.030Z,13.22
2022-12-09T14:52:18.023Z,13.20
2022-12-09T14:54:10.077Z,13.23
2022-12-09T14:55:42.357Z,13.24
2022-12-09T14:57:19.930Z,13.26
2022-12-09T14:59:02.521Z,13.29
2022-12-09T15:00:38.530Z,13.33
2022-12-09T15:02:11.080Z,13.32
2022-12-09T15:03:50.360Z,13.29
2022-12-09T15:05:23.837Z,13.30
2022-12-09T15:07:13.629Z,13.32
2022-12-09T15:08:45.400Z,13.36
2022-12-09T15:10:22.388Z,13.30
2022-12-09T15:11:55.591Z,13.29
2022-12-09T15:13:27.529Z,13.28
2022-12-09T15:15:04.277Z,13.25
2022-12-09T15:16:36.026Z,13.25
2022-12-09T15:18:08.318Z,13.24
2022-12-09T15:21:32.935Z,13.21
2022-12-09T15:23:19.522Z,13.21
2022-12-09T15:24:54.545Z,13.20
2022-12-09T15:26:35.658Z,13.17
2022-12-09T15:28:21.491Z,13.19
2022-12-09T15:29:56.629Z,13.21
2022-12-09T15:31:29.017Z,13.23
2022-12-09T15:33:01.036Z,13.22
2022-12-09T15:34:32.503Z,13.22
2022-12-09T15:36:05.701Z,13.21
2022-12-09T15:37:37.527Z,13.19
2022-12-09T15:39:29.082Z,13.18
2022-12-09T15:41:19.773Z,13.15
2022-12-09T15:42:54.137Z,13.14
2022-12-09T15:44:26.334Z,13.13
2022-12-09T15:45:59.299Z,13.14
2022-12-09T15:47:51.930Z,13.10
2022-12-09T15:49:25.077Z,13.08
2022-12-09T15:51:02.037Z,13.10
2022-12-09T15:52:42.835Z,13.14
2022-12-09T15:54:17.654Z,13.18
2022-12-09T15:55:50.814Z,13.20
2022-12-09T15:57:22.393Z,13.24
2022-12-09T15:58:56.156Z,13.26
2022-12-09T16:00:29.397Z,13.28
2022-12-09T16:02:01.431Z,13.30
2022-12-09T16:03:34.721Z,13.32
2022-12-09T16:05:07.787Z,13.33
2022-12-09T16:06:40.598Z,13.32
2022-12-09T16:08:12.394Z,13.31
2022-12-09T16:10:05.985Z,13.27
2022-12-09T16:11:41.385Z,13.22
2022-12-09T16:13:15.125Z,13.17
2022-12-09T16:14:47.549Z,13.14
2022-12-09T16:16:24.012Z,13.13
2022-12-09T16:17:56.087Z,13.06
2022-12-09T16:19:34.632Z,12.98
2022-12-09T16:21:16.031Z,12.92
2022-12-09T16:22:48.973Z,12.84
2022-12-09T16:24:20.735Z,12.80
2022-12-09T16:25:59.324Z,12.72
2022-12-09T16:27:35.740Z,12.72
2022-12-09T16:29:09.491Z,12.71
2022-12-09T16:30:45.415Z,12.70
2022-12-09T16:32:25.284Z,12.67
2022-12-09T16:33:58.849Z,12.67
2022-12-09T16:35:45.963Z,12.66
2022-12-09T16:37:31.471Z,12.66
2022-12-09T16:39:09.662Z,12.69
2022-12-09T16:40:43.288Z,12.70
2022-12-09T16:42:37.874Z,12.65
2022-12-09T16:44:18.153Z,12.59
2022-12-09T16:45:50.900Z,12.52
2022-12-09T16:47:25.248Z,12.51
2022-12-09T16:49:04.424Z,12.49
2022-12-09T16:50:42.005Z,12.50
2022-12-09T16:52:14.900Z,12.51
2022-12-09T16:53:47.404Z,12.49
2022-12-09T16:55:20.657Z,12.45
2022-12-09T16:56:53.920Z,12.44
2022-12-09T16:58:26.111Z,12.45
2022-12-09T16:59:58.219Z,12.44
2022-12-09T17:01:32.091Z,12.42
2022-12-09T17:03:05.781Z,12.44
2022-12-09T17:04:37.416Z,12.44
2022-12-09T17:06:18.646Z,12.46
2022-12-09T17:07:50.758Z,12.48
2022-12-09T17:09:22.580Z,12.48
2022-12-09T17:10:55.233Z,12.48
2022-12-09T17:12:27.125Z,12.48
2022-12-09T17:13:59.136Z,12.49
2022-12-09T17:15:30.939Z,12.47
2022-12-09T17:17:03.002Z,12.50
2022-12-09T17:18:34.770Z,12.52
2022-12-09T17:20:07.376Z,12.55
2022-12-09T17:21:39.080Z,12.55
2022-12-09T17:23:10.805Z,12.56
2022-12-09T17:24:42.409Z,12.57
2022-12-09T17:26:16.785Z,12.57
2022-12-09T17:27:48.713Z,12.55
2022-12-09T17:29:20.717Z,12.58
2022-12-09T17:30:52.621Z,12.60
2022-12-09T17:32:24.810Z,12.63
2022-12-09T17:33:56.715Z,12.66
2022-12-09T17:35:28.499Z,12.69
2022-12-09T17:37:00.738Z,12.70
2022-12-09T17:38:33.204Z,12.70
2022-12-09T17:40:05.308Z,12.71
2022-12-09T17:41:37.122Z,12.72
2022-12-09T17:43:09.074Z,12.70
2022-12-09T17:44:41.672Z,12.70
2022-12-09T17:46:13.813Z,12.70
2022-12-09T17:47:46.468Z,12.70
2022-12-09T17:49:19.012Z,12.73
2022-12-09T17:50:51.247Z,12.74
2022-12-09T17:52:22.888Z,12.80
2022-12-09T17:53:55.809Z,12.80
2022-12-09T17:55:27.560Z,12.84
2022-12-09T17:56:59.549Z,12.88
2022-12-09T17:58:32.476Z,12.92
2022-12-09T18:00:07.771Z,12.94
2022-12-09T18:01:41.233Z,12.96
2022-12-09T18:03:17.888Z,12.97
2022-12-09T18:04:54.163Z,13.02
2022-12-09T18:06:31.567Z,13.00
2022-12-09T18:08:03.277Z,13.01
2022-12-09T18:09:40.627Z,13.04
2022-12-09T18:11:12.492Z,13.00
2022-12-09T18:12:44.140Z,13.03
2022-12-09T18:14:16.112Z,13.06
2022-12-09T18:15:53.948Z,13.10
2022-12-09T18:17:26.111Z,13.10
2022-12-09T18:19:01.541Z,13.09
2022-12-09T18:20:33.322Z,13.11
2022-12-09T18:22:05.379Z,13.15
2022-12-09T18:23:37.013Z,13.21
2022-12-09T18:25:08.879Z,13.23
2022-12-09T18:26:42.273Z,13.27
2022-12-09T18:28:14.280Z,13.30
2022-12-09T18:29:45.879Z,13.30
2022-12-09T18:31:19.344Z,13.28
2022-12-09T18:32:51.480Z,13.28
2022-12-09T18:34:23.712Z,13.29
2022-12-09T18:35:55.767Z,13.27
2022-12-09T18:37:27.328Z,13.22
2022-12-09T18:38:59.671Z,13.22
2022-12-09T18:40:31.437Z,13.25
2022-12-09T18:42:03.645Z,13.22
2022-12-09T18:43:37.117Z,13.21
2022-12-09T18:45:10.735Z,13.19
2022-12-09T18:46:47.060Z,13.19
2022-12-09T18:48:19.699Z,13.12
2022-12-09T18:49:51.409Z,13.08
2022-12-09T18:51:24.692Z,13.10
2022-12-09T18:52:56.904Z,13.13
2022-12-09T18:54:29.534Z,13.16
2022-12-09T18:56:04.221Z,13.20
2022-12-09T18:57:36.575Z,13.21
2022-12-09T18:59:10.329Z,13.23
2022-12-09T19:00:42.188Z,13.27
2022-12-09T19:02:15.230Z,13.27
2022-12-09T19:03:48.207Z,13.27
2022-12-09T19:05:20.644Z,13.32
2022-12-09T19:06:53.066Z,13.34
2022-12-09T19:08:24.675Z,13.38
2022-12-09T19:09:56.555Z,13.42
2022-12-09T19:11:29.326Z,13.41
2022-12-09T19:13:02.290Z,13.37
2022-12-09T19:14:35.364Z,13.38
2022-12-09T19:16:07.530Z,13.41
2022-12-09T19:17:40.884Z,13.45
2022-12-09T19:19:13.599Z,13.45
2022-12-09T19:20:45.227Z,13.42
2022-12-09T19:22:16.865Z,13.40
2022-12-09T19:23:48.650Z,13.39
2022-12-09T19:25:20.521Z,13.37
2022-12-09T19:26:54.149Z,13.32
2022-12-09T19:28:25.796Z,13.30
2022-12-09T19:29:57.914Z,13.26
2022-12-09T19:31:30.471Z,13.24
2022-12-09T19:33:02.248Z,13.22
2022-12-09T19:34:34.220Z,13.22
2022-12-09T19:36:06.304Z,13.18
2022-12-09T19:37:38.173Z,13.16
2022-12-09T19:39:09.959Z,13.15
2022-12-09T19:40:43.392Z,13.13
2022-12-09T19:42:15.232Z,13.14
2022-12-09T19:43:47.076Z,13.14
2022-12-09T19:45:19.448Z,13.11
2022-12-09T19:46:51.588Z,13.09
2022-12-09T19:48:23.336Z,13.12
2022-12-09T19:49:54.971Z,13.15
2022-12-09T19:51:27.069Z,13.18
2022-12-09T19:52:59.771Z,13.24
2022-12-09T19:54:32.153Z,13.25
2022-12-09T19:56:04.730Z,13.24
2022-12-09T19:57:36.465Z,13.24
2022-12-09T19:59:08.319Z,13.21
2022-12-09T20:00:41.771Z,13.20
2022-12-09T20:02:14.345Z,13.19
2022-12-09T20:03:47.030Z,13.17
2022-12-09T20:05:19.929Z,13.19
2022-12-09T20:06:51.717Z,13.24
2022-12-09T20:08:25.204Z,13.30
2022-12-09T20:09:57.152Z,13.36
2022-12-09T20:11:31.245Z,13.40
2022-12-09T20:13:03.372Z,13.44
2022-12-09T20:14:35.507Z,13.48
2022-12-09T20:16:08.507Z,13.51
2022-12-09T20:17:40.475Z,13.54
2022-12-09T20:19:12.845Z,13.53
2022-12-09T20:20:48.902Z,13.54
2022-12-09T20:22:21.140Z,13.61
2022-12-09T20:23:52.948Z,13.63